Time;durP1;ratioP1;P1;durP2;ratioP2;P2;SDS_P1;SDS_P2;PMS_P1;PMS_P2;Temp;Humidity;BMP_temperature;BMP_pressure;BME280_temperature;BME280_humidity;BME280_pressure;Samples;Min_cycle;Max_cycle;Signal;HPM_P1;HPM_P2
2023/12/18 00:02:13;;;;;;;19.98;10.98;;;;;;;4.84;100.00;103078.97;5073787;28;20051;-49
2023/12/18 00:04:41;;;;;;;22.00;11.27;;;;;;;4.85;100.00;103077.22;5073300;28;20406;-47
2023/12/18 00:07:09;;;;;;;25.45;12.27;;;;;;;4.87;100.00;103081.56;5068345;28;20056;-45
2023/12/18 00:09:39;;;;;;;27.42;11.98;;;;;;;4.85;100.00;103085.03;5070292;28;20051;-46
2023/12/18 00:12:07;;;;;;;21.83;11.73;;;;;;;4.85;100.00;103078.13;5073744;28;20045;-47
2023/12/18 00:14:37;;;;;;;24.35;11.77;;;;;;;4.82;100.00;103072.88;5072980;28;20041;-48
2023/12/18 00:17:05;;;;;;;21.83;11.38;;;;;;;4.83;100.00;103073.78;5073037;28;20468;-48
2023/12/18 00:19:34;;;;;;;21.80;10.85;;;;;;;4.84;100.00;103063.34;5073178;28;20076;-49
2023/12/18 00:22:02;;;;;;;19.52;11.52;;;;;;;4.85;100.00;103056.38;5073797;28;20124;-48
2023/12/18 00:24:31;;;;;;;22.08;11.35;;;;;;;4.83;100.00;103058.13;5073663;28;20040;-46
2023/12/18 00:27:00;;;;;;;23.80;11.57;;;;;;;4.83;100.00;103058.13;5072446;28;20052;-49
2023/12/18 00:29:28;;;;;;;19.40;11.20;;;;;;;4.87;100.00;103059.84;5071092;28;20127;-45
2023/12/18 00:31:56;;;;;;;20.10;11.88;;;;;;;4.85;100.00;103053.75;5070614;28;20052;-45
2023/12/18 00:34:24;;;;;;;21.38;11.13;;;;;;;4.84;100.00;103047.69;5070225;28;20094;-47
2023/12/18 00:36:53;;;;;;;24.70;12.85;;;;;;;4.84;100.00;103042.47;5071772;28;20048;-46
2023/12/18 00:39:21;;;;;;;19.55;11.90;;;;;;;4.85;100.00;103040.72;5072544;28;20047;-47
2023/12/18 00:41:50;;;;;;;21.98;11.88;;;;;;;4.85;100.00;103038.13;5071453;28;20131;-48
2023/12/18 00:44:19;;;;;;;23.52;11.93;;;;;;;4.89;100.00;103037.22;5069599;28;20127;-46
2023/12/18 00:46:47;;;;;;;20.08;10.90;;;;;;;4.92;100.00;103045.00;5069468;28;20120;-48
2023/12/18 00:49:16;;;;;;;20.75;11.00;;;;;;;4.92;100.00;103047.63;5072892;28;20044;-46
2023/12/18 00:51:45;;;;;;;20.50;11.45;;;;;;;4.94;100.00;103050.25;5072348;28;20052;-49
2023/12/18 00:54:13;;;;;;;23.30;12.32;;;;;;;4.98;100.00;103047.59;5056507;28;20055;-47
2023/12/18 00:56:44;;;;;;;23.88;12.18;;;;;;;4.97;100.00;103047.59;5072631;28;20486;-47
2023/12/18 00:59:12;;;;;;;24.65;11.90;;;;;;;5.00;100.00;103053.66;5072643;28;20040;-50
2023/12/18 01:01:44;;;;;;;22.48;12.10;;;;;;;5.00;100.00;103048.44;5072454;28;20045;-50
2023/12/18 01:04:12;;;;;;;23.05;11.40;;;;;;;5.00;100.00;103044.97;5069738;28;20098;-48
2023/12/18 01:06:41;;;;;;;18.48;11.82;;;;;;;5.01;100.00;103038.88;5069913;28;20052;-49
2023/12/18 01:09:09;;;;;;;23.50;11.82;;;;;;;5.01;100.00;103038.88;5068438;28;20041;-49
2023/12/18 01:11:38;;;;;;;18.63;11.77;;;;;;;5.01;100.00;103036.28;5071588;28;20549;-51
2023/12/18 01:14:06;;;;;;;19.55;11.60;;;;;;;5.04;100.00;103036.25;5071700;28;20127;-49
2023/12/18 01:16:35;;;;;;;20.45;11.77;;;;;;;5.06;100.00;103029.31;5071722;28;20047;-45
2023/12/18 01:19:05;;;;;;;24.63;12.25;;;;;;;5.06;100.00;103030.16;5072204;28;20060;-46
2023/12/18 01:21:33;;;;;;;24.40;12.63;;;;;;;5.09;100.00;103024.06;5072125;28;20041;-48
2023/12/18 01:24:01;;;;;;;21.77;11.40;;;;;;;5.07;100.00;103017.97;5072188;28;20056;-46
2023/12/18 01:26:31;;;;;;;20.98;11.93;;;;;;;5.12;100.00;103017.94;5072189;28;20047;-48
2023/12/18 01:28:59;;;;;;;23.67;12.00;;;;;;;5.11;100.00;103019.66;5071783;28;20514;-46
2023/12/18 01:31:27;;;;;;;19.65;12.52;;;;;;;5.08;100.00;103023.19;5071785;28;20049;-45
2023/12/18 01:33:56;;;;;;;24.55;12.43;;;;;;;5.10;100.00;103022.28;5071934;28;20044;-46
2023/12/18 01:36:26;;;;;;;23.52;13.05;;;;;;;5.07;100.00;103026.69;5072110;28;20060;-47
2023/12/18 01:38:54;;;;;;;25.27;12.35;;;;;;;5.08;100.00;103020.59;5070570;28;20139;-46
2023/12/18 01:41:25;;;;;;;22.20;11.98;;;;;;;5.13;100.00;103030.13;5071871;28;20075;-46
2023/12/18 01:43:54;;;;;;;22.17;12.43;;;;;;;5.12;100.00;103015.34;5071970;28;20098;-48
2023/12/18 01:46:23;;;;;;;23.63;12.68;;;;;;;5.15;100.00;103028.34;5072058;28;20123;-48
2023/12/18 01:48:52;;;;;;;21.67;12.10;;;;;;;5.14;100.00;103024.00;5072279;28;20045;-58
2023/12/18 01:51:22;;;;;;;23.95;12.38;;;;;;;5.18;100.00;103025.72;5068652;28;20480;-58
2023/12/18 01:53:55;;;;;;;24.38;12.43;;;;;;;5.17;100.00;103026.63;5069467;28;20061;-58
2023/12/18 01:56:27;;;;;;;21.77;11.95;;;;;;;5.16;100.00;103020.50;5072928;28;20070;-57
2023/12/18 01:58:58;;;;;;;23.98;12.75;;;;;;;5.16;100.00;103017.91;5071781;28;20539;-57
2023/12/18 02:01:26;;;;;;;21.42;11.85;;;;;;;5.16;100.00;103010.06;5070483;28;20075;-58
2023/12/18 02:03:56;;;;;;;20.40;12.02;;;;;;;5.17;100.00;103005.75;5071628;28;20076;-58
2023/12/18 02:06:24;;;;;;;22.33;12.52;;;;;;;5.18;100.00;103008.34;5067456;28;20047;-57
2023/12/18 02:08:56;;;;;;;22.48;12.23;;;;;;;5.21;100.00;103007.44;5067627;28;20051;-57
2023/12/18 02:11:24;;;;;;;26.95;13.52;;;;;;;5.23;100.00;103010.91;5070377;28;20048;-58
2023/12/18 02:13:53;;;;;;;22.00;12.15;;;;;;;5.28;100.00;103010.88;5071544;28;20056;-58
2023/12/18 02:16:24;;;;;;;21.92;12.60;;;;;;;5.28;100.00;103013.47;5071255;28;20128;-57
2023/12/18 02:18:52;;;;;;;21.40;12.93;;;;;;;5.28;100.00;103018.72;5071350;28;20048;-57
2023/12/18 02:21:21;;;;;;;22.25;13.70;;;;;;;5.27;100.00;103012.59;5070603;28;20503;-58
2023/12/18 02:23:53;;;;;;;23.25;13.07;;;;;;;5.28;100.00;103006.50;5070496;28;20044;-57
2023/12/18 02:26:22;;;;;;;24.65;12.80;;;;;;;5.31;100.00;103008.22;5071050;28;20809;-58
2023/12/18 02:28:50;;;;;;;20.60;13.13;;;;;;;5.34;100.00;103010.81;5069339;28;20045;-47
2023/12/18 02:31:19;;;;;;;21.88;12.52;;;;;;;5.32;100.00;103007.34;5070406;28;20045;-48
2023/12/18 02:33:49;;;;;;;23.15;12.50;;;;;;;5.32;100.00;103002.16;5056579;28;20102;-49
2023/12/18 02:36:18;;;;;;;24.73;13.30;;;;;;;5.35;100.00;103009.94;5069817;28;20443;-48
2023/12/18 02:38:47;;;;;;;21.20;11.90;;;;;;;5.35;100.00;103018.63;5070898;28;20049;-50
2023/12/18 02:41:16;;;;;;;26.67;12.07;;;;;;;5.36;100.00;103024.72;5071164;28;20036;-47
2023/12/18 02:43:44;;;;;;;20.88;12.40;;;;;;;5.36;100.00;103024.72;5071045;28;20044;-50
2023/12/18 02:46:12;;;;;;;25.08;12.07;;;;;;;5.36;100.00;103014.28;5069741;28;20052;-46
2023/12/18 02:48:44;;;;;;;23.55;13.55;;;;;;;5.37;100.00;103010.78;5070585;28;20447;-57
2023/12/18 02:51:12;;;;;;;22.77;12.77;;;;;;;5.40;100.00;103013.38;5067119;28;20055;-57
2023/12/18 02:53:42;;;;;;;23.25;12.75;;;;;;;5.40;100.00;103016.00;5051070;28;20472;-57
2023/12/18 02:56:13;;;;;;;24.42;13.02;;;;;;;5.38;100.00;103008.16;5069451;28;20075;-57
2023/12/18 02:58:43;;;;;;;25.90;13.02;;;;;;;5.41;100.00;102996.81;5067267;28;20032;-57
2023/12/18 03:01:11;;;;;;;22.10;12.02;;;;;;;5.44;100.00;102994.19;5068124;28;20048;-57
2023/12/18 03:03:39;;;;;;;22.98;12.55;;;;;;;5.44;100.00;102988.09;5070430;28;20060;-57
2023/12/18 03:06:08;;;;;;;25.65;13.02;;;;;;;5.42;100.00;102991.56;5069838;28;20044;-57
2023/12/18 03:08:36;;;;;;;21.65;12.10;;;;;;;5.44;100.00;102993.31;5071206;28;20403;-58
2023/12/18 03:11:04;;;;;;;18.92;11.75;;;;;;;5.43;100.00;102992.47;5070611;28;20080;-57
2023/12/18 03:13:32;;;;;;;24.02;12.82;;;;;;;5.44;100.00;102991.59;5070966;28;20162;-57
2023/12/18 03:16:02;;;;;;;27.13;12.98;;;;;;;5.45;100.00;102992.44;5070342;28;20127;-58
2023/12/18 03:18:30;;;;;;;22.40;12.55;;;;;;;5.46;100.00;102992.44;5067587;28;20063;-57
2023/12/18 03:20:58;;;;;;;22.55;12.25;;;;;;;5.48;100.00;102993.28;5068171;28;20557;-57
2023/12/18 03:23:26;;;;;;;22.42;12.60;;;;;;;5.48;100.00;102990.69;5070628;28;20487;-47
2023/12/18 03:25:54;;;;;;;22.20;11.88;;;;;;;5.47;100.00;102988.94;5070982;28;20036;-47
2023/12/18 03:28:23;;;;;;;21.20;12.80;;;;;;;5.47;100.00;102993.28;5067334;28;20040;-48
2023/12/18 03:30:51;;;;;;;22.70;12.50;;;;;;;5.47;100.00;102995.88;5067226;28;20048;-46
2023/12/18 03:33:23;;;;;;;24.13;12.43;;;;;;;5.47;100.00;102991.56;5073636;28;20055;-46
2023/12/18 03:35:51;;;;;;;23.27;12.93;;;;;;;5.46;100.00;102986.34;5074170;28;20105;-46
2023/12/18 03:38:20;;;;;;;19.67;12.52;;;;;;;5.44;100.00;102988.97;5073816;28;20036;-46
2023/12/18 03:40:48;;;;;;;22.63;13.43;;;;;;;5.45;100.00;102984.63;5073942;28;20048;-46
2023/12/18 03:43:16;;;;;;;25.67;13.30;;;;;;;5.49;100.00;102987.16;5073669;28;20048;-45
2023/12/18 03:45:44;;;;;;;22.33;13.10;;;;;;;5.47;100.00;102983.72;5073271;28;20040;-49
2023/12/18 03:48:12;;;;;;;21.60;13.52;;;;;;;5.50;100.00;102980.22;5073260;28;20052;-46
2023/12/18 03:50:42;;;;;;;21.52;13.00;;;;;;;5.50;100.00;102985.44;5074219;28;20510;-47
2023/12/18 03:53:10;;;;;;;23.20;13.85;;;;;;;5.48;100.00;102985.47;5073945;28;20722;-47
2023/12/18 03:55:39;;;;;;;22.27;12.63;;;;;;;5.47;100.00;102986.34;5073771;28;20045;-51
2023/12/18 03:58:08;;;;;;;22.52;12.75;;;;;;;5.47;100.00;102988.94;5073768;28;20060;-46
2023/12/18 04:00:36;;;;;;;25.45;12.45;;;;;;;5.51;100.00;102987.19;5073512;28;20040;-49
2023/12/18 04:03:05;;;;;;;19.33;12.38;;;;;;;5.51;100.00;102989.78;5072699;28;20048;-49
2023/12/18 04:05:33;;;;;;;24.00;13.95;;;;;;;5.52;100.00;102983.66;5075096;28;20044;-47
2023/12/18 04:08:03;;;;;;;25.38;13.25;;;;;;;5.56;100.00;102977.53;5079359;28;20048;-46
2023/12/18 04:10:31;;;;;;;25.35;13.38;;;;;;;5.50;100.00;102981.06;5073328;28;20051;-45
2023/12/18 04:12:59;;;;;;;21.70;13.35;;;;;;;5.49;100.00;102987.16;5073375;28;20048;-47
2023/12/18 04:15:28;;;;;;;25.92;13.65;;;;;;;5.50;100.00;102991.50;5072814;28;20127;-46
2023/12/18 04:17:57;;;;;;;23.60;13.70;;;;;;;5.48;100.00;102980.25;5071976;28;20033;-47
2023/12/18 04:20:26;;;;;;;26.67;14.07;;;;;;;5.52;100.00;102981.06;5068483;28;20048;-50
2023/12/18 04:22:54;;;;;;;23.88;13.60;;;;;;;5.48;100.00;102985.47;5072508;28;20102;-47
2023/12/18 04:25:24;;;;;;;23.85;13.57;;;;;;;5.49;100.00;102978.50;5073079;28;20048;-48
2023/12/18 04:27:53;;;;;;;23.83;13.82;;;;;;;5.50;100.00;102988.06;5073035;28;20036;-46
2023/12/18 04:30:21;;;;;;;25.70;13.38;;;;;;;5.51;100.00;102985.44;5073343;28;20492;-47
2023/12/18 04:32:49;;;;;;;24.80;13.50;;;;;;;5.50;100.00;102981.06;5072638;28;20126;-47
2023/12/18 04:35:18;;;;;;;28.25;13.90;;;;;;;5.50;100.00;102978.47;5072834;28;20044;-46
2023/12/18 04:37:46;;;;;;;25.73;13.90;;;;;;;5.53;100.00;102972.34;5072716;28;20033;-46
2023/12/18 04:40:15;;;;;;;24.85;13.98;;;;;;;5.49;100.00;102968.91;5073113;28;20055;-46
2023/12/18 04:42:45;;;;;;;21.75;13.60;;;;;;;5.50;100.00;102965.41;5072629;28;20055;-45
2023/12/18 04:45:14;;;;;;;26.30;13.45;;;;;;;5.48;100.00;102966.31;5072268;28;20106;-46
2023/12/18 04:47:43;;;;;;;28.60;14.60;;;;;;;5.48;100.00;102966.31;5072937;28;20083;-46
2023/12/18 04:50:12;;;;;;;26.83;13.52;;;;;;;5.49;100.00;102968.03;5054049;28;20052;-46
2023/12/18 04:52:40;;;;;;;22.80;13.68;;;;;;;5.48;100.00;102963.69;5071596;28;20098;-46
2023/12/18 04:55:09;;;;;;;26.58;14.82;;;;;;;5.48;100.00;102966.31;5069548;28;20056;-46
2023/12/18 04:57:38;;;;;;;24.60;13.10;;;;;;;5.48;100.00;102968.91;5070659;28;20033;-47
2023/12/18 05:00:09;;;;;;;25.55;14.38;;;;;;;5.51;100.00;102963.69;5072431;28;20124;-47
2023/12/18 05:02:37;;;;;;;24.42;13.38;;;;;;;5.49;100.00;102971.50;5066263;28;20048;-46
2023/12/18 05:05:06;;;;;;;25.33;13.68;;;;;;;5.51;100.00;102974.13;5069955;28;20581;-47
2023/12/18 05:07:35;;;;;;;28.17;14.07;;;;;;;5.51;100.00;102974.13;5072327;28;20078;-47
2023/12/18 05:10:03;;;;;;;22.55;14.05;;;;;;;5.52;100.00;102965.41;5072556;28;20045;-47
2023/12/18 05:12:31;;;;;;;25.73;13.70;;;;;;;5.52;100.00;102971.50;5072400;28;20041;-48
2023/12/18 05:14:59;;;;;;;25.17;14.25;;;;;;;5.52;100.00;102974.13;5071775;28;20123;-47
2023/12/18 05:17:32;;;;;;;27.48;14.13;;;;;;;5.53;100.00;102977.56;5071950;28;20083;-48
2023/12/18 05:20:01;;;;;;;25.98;15.15;;;;;;;5.51;100.00;102977.59;5070643;28;20043;-48
2023/12/18 05:22:29;;;;;;;24.48;14.40;;;;;;;5.51;100.00;102974.13;5066736;28;20125;-50
2023/12/18 05:24:57;;;;;;;26.35;14.52;;;;;;;5.52;100.00;102976.72;5070540;28;20384;-50
2023/12/18 05:27:25;;;;;;;22.70;13.98;;;;;;;5.52;100.00;102970.63;5070544;28;20075;-51
2023/12/18 05:29:54;;;;;;;27.00;14.07;;;;;;;5.48;100.00;102972.41;5071528;28;20528;-57
2023/12/18 05:32:22;;;;;;;25.60;15.07;;;;;;;5.50;100.00;102975.84;5072124;28;20098;-58
2023/12/18 05:34:51;;;;;;;28.27;15.85;;;;;;;5.52;100.00;102965.41;5070725;28;20110;-56
2023/12/18 05:37:20;;;;;;;25.98;13.60;;;;;;;5.54;100.00;102967.13;5072005;28;20070;-56
2023/12/18 05:39:48;;;;;;;23.88;14.25;;;;;;;5.53;100.00;102962.75;5072200;28;20048;-56
2023/12/18 05:42:18;;;;;;;22.85;15.25;;;;;;;5.49;100.00;102955.84;5072118;28;20060;-56
2023/12/18 05:44:47;;;;;;;25.67;14.43;;;;;;;5.51;100.00;102953.25;5072106;28;20036;-55
2023/12/18 05:47:15;;;;;;;26.23;14.70;;;;;;;5.52;100.00;102952.34;5070623;28;20037;-56
2023/12/18 05:49:44;;;;;;;26.17;15.80;;;;;;;5.51;100.00;102946.28;5071477;28;20113;-57
2023/12/18 05:52:14;;;;;;;27.42;15.32;;;;;;;5.50;100.00;102941.94;5070983;28;20052;-57
2023/12/18 05:54:42;;;;;;;31.90;15.38;;;;;;;5.52;100.00;102950.63;5069650;28;20080;-57
2023/12/18 05:57:14;;;;;;;33.17;17.15;;;;;;;5.50;100.00;102947.16;5071893;28;20113;-57
2023/12/18 05:59:42;;;;;;;28.30;16.52;;;;;;;5.48;100.00;102950.66;5071336;28;20036;-56
2023/12/18 06:02:13;;;;;;;27.02;15.48;;;;;;;5.47;100.00;102951.53;5070639;28;20492;-55
2023/12/18 06:04:43;;;;;;;33.53;15.70;;;;;;;5.49;100.00;102950.63;5067467;28;20075;-57
2023/12/18 06:07:12;;;;;;;26.60;16.25;;;;;;;5.51;100.00;102954.09;5067072;28;20074;-56
2023/12/18 06:09:41;;;;;;;28.63;17.50;;;;;;;5.49;100.00;102953.25;5068282;28;20048;-56
2023/12/18 06:12:09;;;;;;;29.52;17.20;;;;;;;5.51;100.00;102956.72;5068247;28;20127;-56
2023/12/18 06:14:38;;;;;;;29.52;16.80;;;;;;;5.52;100.00;102949.72;5068887;28;20049;-56
2023/12/18 06:17:10;;;;;;;32.35;17.27;;;;;;;5.58;100.00;102955.75;5070508;28;20467;-45
2023/12/18 06:19:38;;;;;;;30.77;17.38;;;;;;;5.52;100.00;102961.06;5070261;28;20051;-46
2023/12/18 06:22:08;;;;;;;28.98;17.70;;;;;;;5.55;100.00;102955.81;5070507;28;20521;-45
2023/12/18 06:24:40;;;;;;;28.55;17.35;;;;;;;5.54;100.00;102946.22;5068105;28;20055;-46
2023/12/18 06:27:09;;;;;;;33.50;16.80;;;;;;;5.56;100.00;102952.31;5070516;28;20052;-45
2023/12/18 06:29:37;;;;;;;33.15;17.60;;;;;;;5.58;100.00;102955.75;5070428;28;20036;-46
2023/12/18 06:32:06;;;;;;;34.53;17.02;;;;;;;5.59;100.00;102947.06;5070371;28;20823;-47
2023/12/18 06:34:36;;;;;;;28.73;16.50;;;;;;;5.59;100.00;102949.66;5070009;28;20523;-45
2023/12/18 06:37:05;;;;;;;29.85;17.35;;;;;;;5.60;100.00;102942.69;5070497;28;20048;-45
2023/12/18 06:39:33;;;;;;;30.05;17.40;;;;;;;5.58;100.00;102947.94;5070158;28;20029;-46
2023/12/18 06:42:06;;;;;;;29.42;18.38;;;;;;;5.59;100.00;102952.28;5070322;28;20086;-46
2023/12/18 06:44:34;;;;;;;32.28;17.40;;;;;;;5.63;100.00;102947.00;5069617;28;20113;-56
2023/12/18 06:47:02;;;;;;;33.15;17.58;;;;;;;5.62;100.00;102948.78;5069662;28;20059;-56
2023/12/18 06:49:30;;;;;;;30.70;17.25;;;;;;;5.58;100.00;102940.09;5067809;28;20370;-56
2023/12/18 06:51:58;;;;;;;30.67;17.63;;;;;;;5.57;100.00;102938.34;5070139;28;20048;-56
2023/12/18 06:54:27;;;;;;;30.50;16.45;;;;;;;5.57;100.00;102948.81;5068505;28;20055;-56
2023/12/18 06:56:55;;;;;;;30.23;18.20;;;;;;;5.59;100.00;102952.28;5070112;28;20106;-56
2023/12/18 06:59:25;;;;;;;27.92;16.48;;;;;;;5.59;100.00;102956.66;5066706;28;20535;-56
2023/12/18 07:01:53;;;;;;;30.27;17.52;;;;;;;5.57;100.00;102955.78;5064992;28;20064;-56
2023/12/18 07:04:22;;;;;;;32.40;17.65;;;;;;;5.58;100.00;102954.91;5068766;28;20555;-56
2023/12/18 07:06:50;;;;;;;40.53;17.70;;;;;;;5.58;100.00;102952.31;5070872;28;20451;-56
2023/12/18 07:09:18;;;;;;;29.60;15.93;;;;;;;5.56;100.00;102952.31;5074009;28;20495;-56
2023/12/18 07:11:47;;;;;;;31.45;17.63;;;;;;;5.59;100.00;102959.25;5074297;28;20545;-57
2023/12/18 07:14:15;;;;;;;31.58;16.13;;;;;;;5.57;100.00;102956.63;5074696;28;20072;-56
2023/12/18 07:16:45;;;;;;;33.42;17.92;;;;;;;5.53;100.00;102949.72;5074285;28;20049;-56
2023/12/18 07:19:14;;;;;;;28.20;17.67;;;;;;;5.55;100.00;102952.34;5074083;28;20410;-56
2023/12/18 07:21:43;;;;;;;33.17;18.10;;;;;;;5.55;100.00;102953.19;5074407;28;20106;-57
2023/12/18 07:24:11;;;;;;;28.88;16.15;;;;;;;5.57;100.00;102959.25;5074052;28;20072;-56
2023/12/18 07:26:39;;;;;;;30.65;17.13;;;;;;;5.58;100.00;102950.53;5074579;28;20087;-45
2023/12/18 07:29:08;;;;;;;29.88;16.00;;;;;;;5.59;100.00;102957.50;5073543;28;20040;-46
2023/12/18 07:31:36;;;;;;;27.45;17.10;;;;;;;5.61;100.00;102959.25;5070386;28;20049;-47
2023/12/18 07:34:05;;;;;;;28.45;16.70;;;;;;;5.58;100.00;102955.75;5071535;28;20079;-44
2023/12/18 07:36:38;;;;;;;31.40;16.88;;;;;;;5.56;100.00;102964.47;5073974;28;20131;-45
2023/12/18 07:39:06;;;;;;;;;;;;;;;5.56;100.00;102951.44;5073345;28;20060;-46
2023/12/18 07:41:35;;;;;;;31.58;16.13;;;;;;;5.62;100.00;102942.66;5074273;28;19920;-47
2023/12/18 07:44:03;;;;;;;29.15;15.48;;;;;;;5.57;100.00;102948.81;5074241;28;20084;-45
2023/12/18 07:46:32;;;;;;;30.20;16.20;;;;;;;5.56;100.00;102947.09;5074269;28;20048;-46
2023/12/18 07:49:00;;;;;;;32.80;17.45;;;;;;;5.54;100.00;102946.22;5072891;28;20492;-45
2023/12/18 07:51:29;;;;;;;31.75;18.13;;;;;;;5.54;100.00;102948.84;5074176;28;20044;-46
2023/12/18 07:53:58;;;;;;;32.55;17.20;;;;;;;5.54;100.00;102943.63;5073976;28;20052;-46
2023/12/18 07:56:26;;;;;;;31.20;18.20;;;;;;;5.53;100.00;102941.03;5074302;28;20495;-45
2023/12/18 07:58:54;;;;;;;38.90;16.70;;;;;;;5.57;100.00;102942.72;5074140;28;20044;-45
2023/12/18 08:01:22;;;;;;;29.35;16.83;;;;;;;5.54;100.00;102932.31;5074195;28;20542;-46
2023/12/18 08:03:53;;;;;;;33.17;18.45;;;;;;;5.52;100.00;102931.47;5074062;28;20049;-45
2023/12/18 08:06:21;;;;;;;31.00;16.45;;;;;;;5.56;100.00;102934.03;5072698;28;20563;-45
2023/12/18 08:08:51;;;;;;;28.95;16.58;;;;;;;5.55;100.00;102931.47;5072116;28;20049;-47
2023/12/18 08:11:19;;;;;;;31.60;16.70;;;;;;;5.58;100.00;102936.63;5073285;28;20048;-45
2023/12/18 08:13:48;;;;;;;28.80;16.50;;;;;;;5.62;100.00;102933.09;5073525;28;20049;-45
2023/12/18 08:16:17;;;;;;;30.92;17.20;;;;;;;5.62;100.00;102937.44;5073706;28;20040;-45
2023/12/18 08:18:46;;;;;;;31.63;16.52;;;;;;;5.67;100.00;102938.25;5072522;28;20441;-45
2023/12/18 08:21:15;;;;;;;31.40;17.13;;;;;;;5.66;100.00;102936.53;5073608;28;20479;-45
2023/12/18 08:23:44;;;;;;;35.58;16.67;;;;;;;5.67;100.00;102936.53;5073673;28;20044;-46
2023/12/18 08:26:14;;;;;;;28.80;16.13;;;;;;;5.67;100.00;102933.03;5073564;28;20056;-45
2023/12/18 08:28:43;;;;;;;30.90;17.00;;;;;;;5.69;100.00;102931.31;5073410;28;20036;-46
2023/12/18 08:31:12;;;;;;;31.80;17.40;;;;;;;5.70;100.00;102943.44;5073365;28;20110;-48
2023/12/18 08:33:42;;;;;;;31.30;16.20;;;;;;;5.70;100.00;102938.22;5073339;28;20049;-49
2023/12/18 08:36:10;;;;;;;28.48;16.65;;;;;;;5.72;100.00;102932.09;5073386;28;20511;-48
2023/12/18 08:38:41;;;;;;;32.67;17.05;;;;;;;5.71;100.00;102926.91;5071821;28;20053;-48
2023/12/18 08:41:09;;;;;;;30.92;17.73;;;;;;;5.73;100.00;102931.22;5073170;28;20051;-47
2023/12/18 08:43:39;;;;;;;30.25;17.35;;;;;;;5.77;100.00;102926.84;5073109;28;20143;-56
2023/12/18 08:46:08;;;;;;;34.55;16.40;;;;;;;5.81;100.00;102932.88;5073202;28;20059;-56
2023/12/18 08:48:37;;;;;;;31.42;17.88;;;;;;;5.81;100.00;102933.75;5071698;28;20140;-46
2023/12/18 08:51:05;;;;;;;29.65;15.82;;;;;;;5.85;100.00;102927.63;5073066;28;20119;-48
2023/12/18 08:53:33;;;;;;;29.35;16.40;;;;;;;5.86;100.00;102931.09;5071427;28;20135;-47
2023/12/18 08:56:02;;;;;;;28.33;16.90;;;;;;;5.88;100.00;102926.72;5073031;28;20076;-50
2023/12/18 08:58:30;;;;;;;29.42;16.60;;;;;;;5.89;100.00;102923.19;5071730;28;20389;-49
2023/12/18 09:00:59;;;;;;;28.70;16.45;;;;;;;5.88;100.00;102924.97;5073044;28;20503;-49
2023/12/18 09:03:29;;;;;;;29.00;16.40;;;;;;;5.91;100.00;102919.69;5072673;28;20056;-50
2023/12/18 09:05:58;;;;;;;30.42;17.52;;;;;;;5.86;100.00;102908.47;5072821;28;20075;-47
2023/12/18 09:08:26;;;;;;;30.00;16.38;;;;;;;5.89;100.00;102907.53;5072461;28;20053;-48
2023/12/18 09:10:57;;;;;;;25.77;16.52;;;;;;;5.93;100.00;102915.34;5072384;28;20049;-46
2023/12/18 09:13:25;;;;;;;31.48;18.20;;;;;;;5.93;100.00;102919.66;5071254;28;20060;-46
2023/12/18 09:15:53;;;;;;;32.58;16.73;;;;;;;5.98;100.00;102928.34;5072520;28;20053;-46
2023/12/18 09:18:23;;;;;;;32.17;17.52;;;;;;;6.00;100.00;102928.34;5072429;28;20079;-48
2023/12/18 09:20:51;;;;;;;30.63;16.45;;;;;;;6.02;100.00;102923.97;5072015;28;20086;-46
2023/12/18 09:23:22;;;;;;;34.00;16.90;;;;;;;6.02;100.00;102927.44;5071180;28;20510;-46
2023/12/18 09:25:50;;;;;;;29.55;16.60;;;;;;;6.02;100.00;102924.81;5069247;28;20052;-47
2023/12/18 09:28:21;;;;;;;29.02;16.15;;;;;;;6.10;100.00;102927.34;5069468;28;20078;-46
2023/12/18 09:30:49;;;;;;;33.72;17.05;;;;;;;6.10;100.00;102929.97;5069160;28;20040;-45
2023/12/18 09:33:18;;;;;;;31.98;16.38;;;;;;;6.11;100.00;102931.69;5067762;28;20415;-46
2023/12/18 09:35:48;;;;;;;30.25;15.68;;;;;;;6.12;100.00;102927.31;5072127;28;20079;-47
2023/12/18 09:38:16;;;;;;;38.28;17.73;;;;;;;6.11;100.00;102926.47;5072260;28;20051;-46
2023/12/18 09:40:45;;;;;;;29.98;16.85;;;;;;;6.10;100.00;102924.72;5070394;28;20040;-46
2023/12/18 09:43:17;;;;;;;29.42;15.98;;;;;;;6.11;100.00;102920.34;5065926;28;20045;-47
2023/12/18 09:45:46;;;;;;;29.85;16.38;;;;;;;6.15;100.00;102911.59;5070990;28;20048;-46
2023/12/18 09:48:15;;;;;;;31.85;16.20;;;;;;;6.17;100.00;102902.84;5071856;28;20044;-46
2023/12/18 09:50:48;;;;;;;30.25;17.40;;;;;;;6.17;100.00;102902.00;5071880;28;20467;-50
2023/12/18 09:53:20;;;;;;;34.72;17.05;;;;;;;6.22;100.00;102905.41;5070206;28;20050;-46
2023/12/18 09:55:51;;;;;;;32.47;17.00;;;;;;;6.22;100.00;102908.88;5071844;28;20050;-47
2023/12/18 09:58:21;;;;;;;30.25;16.67;;;;;;;6.24;100.00;102895.78;5071956;28;20064;-46
2023/12/18 10:00:50;;;;;;;33.80;16.83;;;;;;;6.29;100.00;102893.13;5072149;28;20511;-47
2023/12/18 10:03:19;;;;;;;31.42;17.60;;;;;;;6.30;100.00;102887.00;5071617;28;20094;-46
2023/12/18 10:05:49;;;;;;;32.17;16.42;;;;;;;6.34;100.00;102884.34;5070481;28;20135;-46
2023/12/18 10:08:18;;;;;;;33.35;17.05;;;;;;;6.38;100.00;102886.03;5071883;28;20056;-46
2023/12/18 10:10:46;;;;;;;31.38;16.65;;;;;;;6.46;100.00;102880.66;5071554;28;20506;-46
2023/12/18 10:13:14;;;;;;;29.85;16.35;;;;;;;6.51;100.00;102888.44;5071619;28;20127;-46
2023/12/18 10:15:43;;;;;;;26.73;15.73;;;;;;;6.49;100.00;102888.47;5071585;28;20048;-50
2023/12/18 10:18:12;;;;;;;34.45;17.85;;;;;;;6.52;100.00;102893.63;5071537;28;20616;-49
2023/12/18 10:20:48;;;;;;;;;;;;;;;6.60;100.00;102891.78;5072106;28;20399;-47
2023/12/18 10:23:18;;;;;;;27.77;15.82;;;;;;;6.64;100.00;102903.06;5071436;28;19921;-48
2023/12/18 10:25:48;;;;;;;31.13;16.80;;;;;;;6.67;100.00;102895.16;5071506;28;20499;-48
2023/12/18 10:28:19;;;;;;;33.38;16.73;;;;;;;6.74;100.00;102894.16;5071666;28;20040;-49
2023/12/18 10:30:47;;;;;;;27.52;16.00;;;;;;;6.74;100.00;102893.31;5071515;28;20044;-51
2023/12/18 10:33:15;;;;;;;26.15;15.70;;;;;;;6.80;100.00;102893.19;5070197;28;20139;-48
2023/12/18 10:35:48;;;;;;;31.08;17.67;;;;;;;6.77;100.00;102891.47;5071196;28;20045;-51
2023/12/18 10:38:22;;;;;;;32.45;17.58;;;;;;;6.83;100.00;102879.19;5071470;28;20087;-50
2023/12/18 10:40:55;;;;;;;36.03;17.23;;;;;;;6.85;100.00;102875.66;5071115;28;20144;-46
2023/12/18 10:43:25;;;;;;;34.65;17.95;;;;;;;6.86;100.00;102877.41;5074452;28;20094;-46
2023/12/18 10:45:54;;;;;;;35.22;19.00;;;;;;;6.87;100.00;102875.63;5075296;28;20060;-46
2023/12/18 10:48:26;;;;;;;32.88;18.70;;;;;;;6.92;100.00;102881.66;5075224;28;20040;-47
2023/12/18 10:50:56;;;;;;;34.13;18.38;;;;;;;6.90;100.00;102873.84;5074817;28;20053;-46
2023/12/18 10:53:27;;;;;;;34.22;17.80;;;;;;;6.88;100.00;102865.16;5074752;28;20134;-47
2023/12/18 10:55:59;;;;;;;35.17;19.20;;;;;;;6.90;100.00;102868.63;5075085;28;20052;-47
2023/12/18 10:58:30;;;;;;;31.55;17.92;;;;;;;6.94;100.00;102862.44;5075066;28;20381;-46
2023/12/18 11:00:59;;;;;;;32.88;18.23;;;;;;;6.99;100.00;102862.34;5074839;28;20087;-45
2023/12/18 11:03:29;;;;;;;34.30;18.38;;;;;;;7.06;100.00;102852.63;5075125;28;20040;-45
2023/12/18 11:05:59;;;;;;;30.58;17.60;;;;;;;7.09;100.00;102858.69;5075044;28;20045;-47
2023/12/18 11:08:28;;;;;;;29.60;17.00;;;;;;;7.08;100.00;102848.25;5074997;28;20040;-49
2023/12/18 11:10:58;;;;;;;31.42;17.92;;;;;;;7.07;100.00;102849.97;5075301;28;20782;-46
2023/12/18 11:13:28;;;;;;;30.55;16.95;;;;;;;7.19;100.00;102848.06;5074799;28;20558;-46
2023/12/18 11:16:09;;;;;;;27.23;17.33;;;;;;;7.20;100.00;102845.41;5074276;28;20050;-47
2023/12/18 11:18:53;;;;;;;32.67;17.08;;;;;;;7.21;100.00;102841.03;5074766;28;20496;-47